sensor_id;sensor_type;location;lat;lon;timestamp;P1;durP1;ratioP1;P2;durP2;ratioP2
15661;SDS011;7931;52.274;10.470;2022-09-09T00:07:05;1.67;;;1.30;;
15661;SDS011;7931;52.274;10.470;2022-09-09T00:18:25;2.13;;;1.45;;
15661;SDS011;7931;52.274;10.470;2022-09-09T00:21:06;1.00;;;0.90;;
15661;SDS011;7931;52.274;10.470;2022-09-09T00:23:40;5.00;;;1.10;;
15661;SDS011;7931;52.274;10.470;2022-09-09T00:29:14;1.77;;;0.73;;
15661;SDS011;7931;52.274;10.470;2022-09-09T00:32:05;1.35;;;0.88;;
15661;SDS011;7931;52.274;10.470;2022-09-09T00:34:46;2.67;;;0.90;;
15661;SDS011;7931;52.274;10.470;2022-09-09T00:37:18;2.42;;;1.00;;
15661;SDS011;7931;52.274;10.470;2022-09-09T00:39:46;6.17;;;1.03;;
15661;SDS011;7931;52.274;10.470;2022-09-09T00:47:49;2.42;;;0.77;;
15661;SDS011;7931;52.274;10.470;2022-09-09T00:50:23;0.73;;;0.70;;
15661;SDS011;7931;52.274;10.470;2022-09-09T00:53:13;2.50;;;0.85;;
15661;SDS011;7931;52.274;10.470;2022-09-09T00:58:36;0.73;;;0.68;;
15661;SDS011;7931;52.274;10.470;2022-09-09T01:03:42;1.98;;;0.70;;
15661;SDS011;7931;52.274;10.470;2022-09-09T01:06:35;2.63;;;0.65;;
15661;SDS011;7931;52.274;10.470;2022-09-09T01:15:41;1.50;;;0.63;;
15661;SDS011;7931;52.274;10.470;2022-09-09T01:18:07;1.52;;;0.65;;
15661;SDS011;7931;52.274;10.470;2022-09-09T01:20:45;1.05;;;0.70;;
15661;SDS011;7931;52.274;10.470;2022-09-09T01:26:17;2.05;;;0.70;;
15661;SDS011;7931;52.274;10.470;2022-09-09T01:28:48;1.20;;;0.80;;
15661;SDS011;7931;52.274;10.470;2022-09-09T01:31:36;2.10;;;0.80;;
15661;SDS011;7931;52.274;10.470;2022-09-09T01:34:00;1.48;;;0.70;;
15661;SDS011;7931;52.274;10.470;2022-09-09T01:39:00;1.65;;;0.70;;
15661;SDS011;7931;52.274;10.470;2022-09-09T01:41:26;1.27;;;0.60;;
15661;SDS011;7931;52.274;10.470;2022-09-09T01:43:52;3.38;;;0.75;;
15661;SDS011;7931;52.274;10.470;2022-09-09T01:46:21;3.33;;;0.73;;
15661;SDS011;7931;52.274;10.470;2022-09-09T01:48:48;5.63;;;1.10;;
15661;SDS011;7931;52.274;10.470;2022-09-09T01:51:15;4.10;;;0.90;;
15661;SDS011;7931;52.274;10.470;2022-09-09T01:53:40;2.65;;;1.00;;
15661;SDS011;7931;52.274;10.470;2022-09-09T01:59:02;2.38;;;0.80;;
15661;SDS011;7931;52.274;10.470;2022-09-09T02:04:37;2.17;;;0.75;;
15661;SDS011;7931;52.274;10.470;2022-09-09T02:07:12;3.47;;;1.05;;
15661;SDS011;7931;52.274;10.470;2022-09-09T02:09:49;2.45;;;1.10;;
15661;SDS011;7931;52.274;10.470;2022-09-09T02:12:21;2.60;;;0.95;;
15661;SDS011;7931;52.274;10.470;2022-09-09T02:14:52;2.97;;;1.02;;
15661;SDS011;7931;52.274;10.470;2022-09-09T02:17:24;2.33;;;1.08;;
15661;SDS011;7931;52.274;10.470;2022-09-09T02:19:58;4.70;;;1.63;;
15661;SDS011;7931;52.274;10.470;2022-09-09T02:22:28;2.28;;;1.40;;
15661;SDS011;7931;52.274;10.470;2022-09-09T02:24:56;3.13;;;1.50;;
15661;SDS011;7931;52.274;10.470;2022-09-09T02:27:24;6.38;;;1.88;;
15661;SDS011;7931;52.274;10.470;2022-09-09T02:29:50;4.05;;;1.90;;
15661;SDS011;7931;52.274;10.470;2022-09-09T02:32:19;2.53;;;1.63;;
15661;SDS011;7931;52.274;10.470;2022-09-09T02:34:58;3.47;;;1.40;;
15661;SDS011;7931;52.274;10.470;2022-09-09T02:37:30;2.97;;;1.52;;
15661;SDS011;7931;52.274;10.470;2022-09-09T02:40:01;2.00;;;1.20;;
15661;SDS011;7931;52.274;10.470;2022-09-09T02:42:31;2.38;;;1.50;;
15661;SDS011;7931;52.274;10.470;2022-09-09T02:44:57;1.25;;;1.15;;
15661;SDS011;7931;52.274;10.470;2022-09-09T02:52:38;2.80;;;1.45;;
15661;SDS011;7931;52.274;10.470;2022-09-09T02:57:53;1.95;;;1.30;;
15661;SDS011;7931;52.274;10.470;2022-09-09T03:00:25;1.80;;;1.30;;
15661;SDS011;7931;52.274;10.470;2022-09-09T03:02:53;2.17;;;1.10;;
15661;SDS011;7931;52.274;10.470;2022-09-09T03:05:20;3.58;;;1.45;;
15661;SDS011;7931;52.274;10.470;2022-09-09T03:07:46;3.13;;;1.10;;
15661;SDS011;7931;52.274;10.470;2022-09-09T03:10:12;1.50;;;1.02;;
15661;SDS011;7931;52.274;10.470;2022-09-09T03:12:38;2.33;;;1.00;;
15661;SDS011;7931;52.274;10.470;2022-09-09T03:15:04;2.40;;;0.88;;
15661;SDS011;7931;52.274;10.470;2022-09-09T03:17:30;2.43;;;0.90;;
15661;SDS011;7931;52.274;10.470;2022-09-09T03:19:56;3.28;;;1.08;;
15661;SDS011;7931;52.274;10.470;2022-09-09T03:22:22;2.22;;;1.30;;
15661;SDS011;7931;52.274;10.470;2022-09-09T03:24:48;1.80;;;1.08;;
15661;SDS011;7931;52.274;10.470;2022-09-09T03:27:13;2.17;;;1.25;;
15661;SDS011;7931;52.274;10.470;2022-09-09T03:29:42;2.88;;;1.27;;
15661;SDS011;7931;52.274;10.470;2022-09-09T03:32:08;3.42;;;1.33;;
15661;SDS011;7931;52.274;10.470;2022-09-09T03:34:35;1.60;;;1.27;;
15661;SDS011;7931;52.274;10.470;2022-09-09T03:37:04;4.97;;;1.30;;
15661;SDS011;7931;52.274;10.470;2022-09-09T03:39:30;1.40;;;1.20;;
15661;SDS011;7931;52.274;10.470;2022-09-09T03:41:56;2.00;;;1.03;;
15661;SDS011;7931;52.274;10.470;2022-09-09T03:44:21;4.70;;;1.70;;
15661;SDS011;7931;52.274;10.470;2022-09-09T03:46:46;3.10;;;1.20;;
15661;SDS011;7931;52.274;10.470;2022-09-09T03:49:12;1.30;;;1.00;;
15661;SDS011;7931;52.274;10.470;2022-09-09T03:51:37;1.93;;;1.30;;
15661;SDS011;7931;52.274;10.470;2022-09-09T03:54:03;5.03;;;1.17;;
15661;SDS011;7931;52.274;10.470;2022-09-09T03:56:30;1.87;;;1.10;;
15661;SDS011;7931;52.274;10.470;2022-09-09T03:58:56;2.15;;;1.30;;
15661;SDS011;7931;52.274;10.470;2022-09-09T04:01:22;1.63;;;1.50;;
15661;SDS011;7931;52.274;10.470;2022-09-09T04:03:48;2.60;;;1.30;;
15661;SDS011;7931;52.274;10.470;2022-09-09T04:06:13;2.23;;;1.30;;
15661;SDS011;7931;52.274;10.470;2022-09-09T04:08:40;2.37;;;1.67;;
15661;SDS011;7931;52.274;10.470;2022-09-09T04:11:06;2.53;;;1.10;;
15661;SDS011;7931;52.274;10.470;2022-09-09T04:13:33;4.17;;;1.60;;
15661;SDS011;7931;52.274;10.470;2022-09-09T04:16:00;2.63;;;1.50;;
15661;SDS011;7931;52.274;10.470;2022-09-09T04:18:27;2.97;;;1.60;;
15661;SDS011;7931;52.274;10.470;2022-09-09T04:20:53;2.63;;;1.53;;
15661;SDS011;7931;52.274;10.470;2022-09-09T04:23:20;3.53;;;1.50;;
15661;SDS011;7931;52.274;10.470;2022-09-09T04:25:50;3.10;;;1.90;;
15661;SDS011;7931;52.274;10.470;2022-09-09T04:28:18;4.50;;;2.00;;
15661;SDS011;7931;52.274;10.470;2022-09-09T04:30:45;3.27;;;1.50;;
15661;SDS011;7931;52.274;10.470;2022-09-09T04:33:11;2.60;;;1.38;;
15661;SDS011;7931;52.274;10.470;2022-09-09T04:35:37;3.60;;;1.50;;
15661;SDS011;7931;52.274;10.470;2022-09-09T04:38:04;3.23;;;1.80;;
15661;SDS011;7931;52.274;10.470;2022-09-09T04:40:30;3.63;;;1.90;;
15661;SDS011;7931;52.274;10.470;2022-09-09T04:43:02;3.40;;;1.90;;
15661;SDS011;7931;52.274;10.470;2022-09-09T04:45:29;6.43;;;2.37;;
15661;SDS011;7931;52.274;10.470;2022-09-09T04:47:56;3.40;;;2.13;;
15661;SDS011;7931;52.274;10.470;2022-09-09T04:50:21;2.67;;;2.07;;
15661;SDS011;7931;52.274;10.470;2022-09-09T04:52:46;2.80;;;2.00;;
15661;SDS011;7931;52.274;10.470;2022-09-09T04:55:12;2.90;;;2.13;;
15661;SDS011;7931;52.274;10.470;2022-09-09T04:57:38;3.03;;;1.80;;
15661;SDS011;7931;52.274;10.470;2022-09-09T05:00:04;6.57;;;2.08;;
15661;SDS011;7931;52.274;10.470;2022-09-09T05:02:30;2.72;;;1.52;;
15661;SDS011;7931;52.274;10.470;2022-09-09T05:04:55;9.25;;;1.58;;
15661;SDS011;7931;52.274;10.470;2022-09-09T05:07:21;4.22;;;1.50;;
15661;SDS011;7931;52.274;10.470;2022-09-09T05:09:46;4.67;;;1.60;;
15661;SDS011;7931;52.274;10.470;2022-09-09T05:12:14;2.50;;;1.20;;
15661;SDS011;7931;52.274;10.470;2022-09-09T05:14:42;1.75;;;1.02;;
15661;SDS011;7931;52.274;10.470;2022-09-09T05:17:08;3.47;;;1.50;;
15661;SDS011;7931;52.274;10.470;2022-09-09T05:19:33;2.92;;;1.70;;
15661;SDS011;7931;52.274;10.470;2022-09-09T05:21:58;2.50;;;1.40;;
15661;SDS011;7931;52.274;10.470;2022-09-09T05:24:24;3.28;;;1.30;;
15661;SDS011;7931;52.274;10.470;2022-09-09T05:26:49;3.78;;;1.73;;
15661;SDS011;7931;52.274;10.470;2022-09-09T05:29:15;3.72;;;1.55;;
15661;SDS011;7931;52.274;10.470;2022-09-09T05:31:43;5.07;;;1.50;;
15661;SDS011;7931;52.274;10.470;2022-09-09T05:34:09;3.20;;;1.33;;
15661;SDS011;7931;52.274;10.470;2022-09-09T05:36:34;3.17;;;1.20;;
15661;SDS011;7931;52.274;10.470;2022-09-09T05:38:59;4.38;;;1.55;;
15661;SDS011;7931;52.274;10.470;2022-09-09T05:41:26;7.05;;;1.70;;
15661;SDS011;7931;52.274;10.470;2022-09-09T05:43:52;3.45;;;1.48;;
15661;SDS011;7931;52.274;10.470;2022-09-09T05:46:18;4.60;;;1.60;;
15661;SDS011;7931;52.274;10.470;2022-09-09T05:48:46;4.20;;;1.60;;
15661;SDS011;7931;52.274;10.470;2022-09-09T05:51:20;2.67;;;1.30;;
15661;SDS011;7931;52.274;10.470;2022-09-09T05:53:48;5.20;;;1.20;;
15661;SDS011;7931;52.274;10.470;2022-09-09T05:56:15;5.85;;;1.48;;
15661;SDS011;7931;52.274;10.470;2022-09-09T05:58:45;1.85;;;1.30;;
15661;SDS011;7931;52.274;10.470;2022-09-09T06:03:40;2.28;;;1.05;;
15661;SDS011;7931;52.274;10.470;2022-09-09T06:06:07;3.97;;;0.90;;
15661;SDS011;7931;52.274;10.470;2022-09-09T06:08:36;2.90;;;1.20;;
15661;SDS011;7931;52.274;10.470;2022-09-09T06:11:07;1.45;;;0.93;;
15661;SDS011;7931;52.274;10.470;2022-09-09T06:13:34;3.17;;;1.05;;
15661;SDS011;7931;52.274;10.470;2022-09-09T06:16:02;4.07;;;1.25;;
15661;SDS011;7931;52.274;10.470;2022-09-09T06:18:28;2.25;;;1.30;;
15661;SDS011;7931;52.274;10.470;2022-09-09T06:21:02;3.47;;;1.30;;
15661;SDS011;7931;52.274;10.470;2022-09-09T06:23:30;6.28;;;1.35;;
15661;SDS011;7931;52.274;10.470;2022-09-09T06:26:12;7.65;;;1.73;;
15661;SDS011;7931;52.274;10.470;2022-09-09T06:28:43;4.75;;;1.50;;
15661;SDS011;7931;52.274;10.470;2022-09-09T06:31:11;3.90;;;1.27;;
15661;SDS011;7931;52.274;10.470;2022-09-09T06:33:38;6.57;;;1.67;;
15661;SDS011;7931;52.274;10.470;2022-09-09T06:36:07;4.55;;;1.55;;
15661;SDS011;7931;52.274;10.470;2022-09-09T06:38:35;3.55;;;1.52;;
15661;SDS011;7931;52.274;10.470;2022-09-09T06:41:01;3.65;;;1.75;;
15661;SDS011;7931;52.274;10.470;2022-09-09T06:43:26;2.42;;;1.50;;
15661;SDS011;7931;52.274;10.470;2022-09-09T06:46:26;2.15;;;1.50;;
15661;SDS011;7931;52.274;10.470;2022-09-09T06:48:46;2.35;;;1.13;;
15661;SDS011;7931;52.274;10.470;2022-09-09T06:51:14;3.65;;;1.30;;
15661;SDS011;7931;52.274;10.470;2022-09-09T06:53:42;4.57;;;1.20;;
15661;SDS011;7931;52.274;10.470;2022-09-09T06:58:34;2.67;;;1.15;;
15661;SDS011;7931;52.274;10.470;2022-09-09T07:01:02;3.97;;;1.17;;
15661;SDS011;7931;52.274;10.470;2022-09-09T07:03:31;1.77;;;0.98;;
15661;SDS011;7931;52.274;10.470;2022-09-09T07:05:57;2.03;;;1.00;;
15661;SDS011;7931;52.274;10.470;2022-09-09T07:08:23;1.13;;;0.90;;
15661;SDS011;7931;52.274;10.470;2022-09-09T07:10:50;2.70;;;1.00;;
15661;SDS011;7931;52.274;10.470;2022-09-09T07:13:27;6.72;;;1.08;;
15661;SDS011;7931;52.274;10.470;2022-09-09T07:15:53;2.83;;;1.00;;
15661;SDS011;7931;52.274;10.470;2022-09-09T07:18:19;2.05;;;0.77;;
15661;SDS011;7931;52.274;10.470;2022-09-09T07:20:54;2.78;;;0.65;;
15661;SDS011;7931;52.274;10.470;2022-09-09T07:23:22;2.00;;;0.80;;
15661;SDS011;7931;52.274;10.470;2022-09-09T07:25:48;1.73;;;0.80;;
15661;SDS011;7931;52.274;10.470;2022-09-09T07:28:14;2.08;;;0.80;;
15661;SDS011;7931;52.274;10.470;2022-09-09T07:30:40;6.85;;;1.17;;
15661;SDS011;7931;52.274;10.470;2022-09-09T07:33:06;3.97;;;0.98;;
15661;SDS011;7931;52.274;10.470;2022-09-09T07:35:32;2.42;;;0.73;;
15661;SDS011;7931;52.274;10.470;2022-09-09T07:37:57;2.70;;;1.08;;
15661;SDS011;7931;52.274;10.470;2022-09-09T07:40:25;1.80;;;1.23;;
15661;SDS011;7931;52.274;10.470;2022-09-09T07:42:51;2.83;;;1.20;;
15661;SDS011;7931;52.274;10.470;2022-09-09T07:45:16;3.30;;;0.80;;
15661;SDS011;7931;52.274;10.470;2022-09-09T07:47:41;1.50;;;0.80;;
15661;SDS011;7931;52.274;10.470;2022-09-09T07:50:10;4.22;;;0.98;;
15661;SDS011;7931;52.274;10.470;2022-09-09T07:52:36;2.85;;;0.80;;
15661;SDS011;7931;52.274;10.470;2022-09-09T07:55:02;2.28;;;0.90;;
15661;SDS011;7931;52.274;10.470;2022-09-09T07:57:29;2.65;;;1.00;;
15661;SDS011;7931;52.274;10.470;2022-09-09T07:59:56;4.80;;;1.10;;
15661;SDS011;7931;52.274;10.470;2022-09-09T08:02:22;3.15;;;0.93;;
15661;SDS011;7931;52.274;10.470;2022-09-09T08:04:48;1.60;;;0.90;;
15661;SDS011;7931;52.274;10.470;2022-09-09T08:07:15;3.20;;;1.13;;
15661;SDS011;7931;52.274;10.470;2022-09-09T08:09:41;1.88;;;0.93;;
15661;SDS011;7931;52.274;10.470;2022-09-09T08:12:07;1.98;;;0.93;;
15661;SDS011;7931;52.274;10.470;2022-09-09T08:14:33;1.25;;;0.85;;
15661;SDS011;7931;52.274;10.470;2022-09-09T08:16:58;2.28;;;1.10;;
15661;SDS011;7931;52.274;10.470;2022-09-09T08:19:27;3.40;;;0.90;;
15661;SDS011;7931;52.274;10.470;2022-09-09T08:21:57;2.35;;;0.98;;
15661;SDS011;7931;52.274;10.470;2022-09-09T08:24:22;3.78;;;0.95;;
15661;SDS011;7931;52.274;10.470;2022-09-09T08:26:48;3.00;;;1.10;;
15661;SDS011;7931;52.274;10.470;2022-09-09T08:29:14;3.28;;;1.08;;
15661;SDS011;7931;52.274;10.470;2022-09-09T08:34:13;1.73;;;0.80;;
15661;SDS011;7931;52.274;10.470;2022-09-09T08:36:40;3.28;;;1.67;;
15661;SDS011;7931;52.274;10.470;2022-09-09T08:39:07;3.05;;;1.00;;
15661;SDS011;7931;52.274;10.470;2022-09-09T08:44:29;2.83;;;0.80;;
15661;SDS011;7931;52.274;10.470;2022-09-09T08:47:09;1.63;;;0.90;;
15661;SDS011;7931;52.274;10.470;2022-09-09T08:52:44;2.25;;;0.95;;
15661;SDS011;7931;52.274;10.470;2022-09-09T08:55:16;2.28;;;0.85;;
15661;SDS011;7931;52.274;10.470;2022-09-09T08:57:52;1.75;;;0.70;;
15661;SDS011;7931;52.274;10.470;2022-09-09T09:00:19;1.38;;;0.68;;
15661;SDS011;7931;52.274;10.470;2022-09-09T09:03:05;3.42;;;0.60;;
15661;SDS011;7931;52.274;10.470;2022-09-09T09:05:52;2.13;;;0.82;;
15661;SDS011;7931;52.274;10.470;2022-09-09T09:08:32;2.58;;;1.35;;
15661;SDS011;7931;52.274;10.470;2022-09-09T09:11:03;1.67;;;0.75;;
15661;SDS011;7931;52.274;10.470;2022-09-09T09:13:34;3.78;;;0.93;;
15661;SDS011;7931;52.274;10.470;2022-09-09T09:16:10;5.22;;;1.15;;
15661;SDS011;7931;52.274;10.470;2022-09-09T09:18:43;4.00;;;0.98;;
15661;SDS011;7931;52.274;10.470;2022-09-09T09:21:12;2.35;;;0.93;;
15661;SDS011;7931;52.274;10.470;2022-09-09T09:24:01;3.78;;;0.95;;
15661;SDS011;7931;52.274;10.470;2022-09-09T09:26:34;2.72;;;0.90;;
15661;SDS011;7931;52.274;10.470;2022-09-09T09:29:03;6.47;;;1.20;;
15661;SDS011;7931;52.274;10.470;2022-09-09T09:31:37;2.30;;;0.85;;
15661;SDS011;7931;52.274;10.470;2022-09-09T09:34:02;3.72;;;0.88;;
15661;SDS011;7931;52.274;10.470;2022-09-09T09:37:15;2.88;;;1.17;;
15661;SDS011;7931;52.274;10.470;2022-09-09T09:39:30;5.80;;;0.98;;
15661;SDS011;7931;52.274;10.470;2022-09-09T09:42:11;4.85;;;0.95;;
15661;SDS011;7931;52.274;10.470;2022-09-09T09:44:40;2.45;;;0.90;;
15661;SDS011;7931;52.274;10.470;2022-09-09T09:47:08;2.25;;;0.68;;
15661;SDS011;7931;52.274;10.470;2022-09-09T09:49:37;4.13;;;0.93;;
15661;SDS011;7931;52.274;10.470;2022-09-09T09:52:03;2.00;;;0.75;;
15661;SDS011;7931;52.274;10.470;2022-09-09T09:54:31;1.85;;;0.90;;
15661;SDS011;7931;52.274;10.470;2022-09-09T09:57:08;2.35;;;0.73;;
15661;SDS011;7931;52.274;10.470;2022-09-09T09:59:38;3.38;;;0.82;;
15661;SDS011;7931;52.274;10.470;2022-09-09T10:04:39;1.88;;;0.68;;
15661;SDS011;7931;52.274;10.470;2022-09-09T10:07:19;1.58;;;0.75;;
15661;SDS011;7931;52.274;10.470;2022-09-09T10:09:54;1.35;;;0.77;;
15661;SDS011;7931;52.274;10.470;2022-09-09T10:26:51;4.25;;;1.25;;
15661;SDS011;7931;52.274;10.470;2022-09-09T10:34:55;2.08;;;0.85;;
15661;SDS011;7931;52.274;10.470;2022-09-09T10:57:29;1.70;;;0.60;;
15661;SDS011;7931;52.274;10.470;2022-09-09T11:00:00;2.65;;;0.90;;
15661;SDS011;7931;52.274;10.470;2022-09-09T11:02:30;4.70;;;0.90;;
15661;SDS011;7931;52.274;10.470;2022-09-09T11:05:05;4.18;;;1.13;;
15661;SDS011;7931;52.274;10.470;2022-09-09T11:07:40;2.50;;;0.93;;
15661;SDS011;7931;52.274;10.470;2022-09-09T11:10:16;1.95;;;0.70;;
15661;SDS011;7931;52.274;10.470;2022-09-09T11:12:46;1.00;;;0.70;;
15661;SDS011;7931;52.274;10.470;2022-09-09T11:15:17;0.70;;;0.60;;
15661;SDS011;7931;52.274;10.470;2022-09-09T11:17:49;2.28;;;0.90;;
15661;SDS011;7931;52.274;10.470;2022-09-09T11:20:20;4.55;;;1.08;;
15661;SDS011;7931;52.274;10.470;2022-09-09T11:22:48;2.35;;;0.80;;
15661;SDS011;7931;52.274;10.470;2022-09-09T11:25:26;2.63;;;0.98;;
15661;SDS011;7931;52.274;10.470;2022-09-09T11:44:39;6.25;;;1.17;;
15661;SDS011;7931;52.274;10.470;2022-09-09T11:50:26;2.70;;;1.10;;
15661;SDS011;7931;52.274;10.470;2022-09-09T11:55:39;2.33;;;0.90;;
15661;SDS011;7931;52.274;10.470;2022-09-09T12:00:43;4.53;;;0.85;;
15661;SDS011;7931;52.274;10.470;2022-09-09T12:06:10;1.92;;;0.95;;
15661;SDS011;7931;52.274;10.470;2022-09-09T12:08:58;5.53;;;0.85;;
15661;SDS011;7931;52.274;10.470;2022-09-09T12:11:33;4.57;;;1.23;;
15661;SDS011;7931;52.274;10.470;2022-09-09T12:13:59;4.10;;;1.33;;
15661;SDS011;7931;52.274;10.470;2022-09-09T12:16:33;4.60;;;0.90;;
15661;SDS011;7931;52.274;10.470;2022-09-09T12:19:19;3.85;;;0.93;;
15661;SDS011;7931;52.274;10.470;2022-09-09T12:24:41;2.85;;;1.10;;
15661;SDS011;7931;52.274;10.470;2022-09-09T12:27:19;2.40;;;0.80;;
15661;SDS011;7931;52.274;10.470;2022-09-09T12:30:03;3.03;;;0.77;;
15661;SDS011;7931;52.274;10.470;2022-09-09T12:32:35;1.98;;;0.90;;
15661;SDS011;7931;52.274;10.470;2022-09-09T12:35:08;3.60;;;0.88;;
15661;SDS011;7931;52.274;10.470;2022-09-09T12:37:45;1.75;;;0.52;;
15661;SDS011;7931;52.274;10.470;2022-09-09T12:40:27;3.13;;;1.45;;
15661;SDS011;7931;52.274;10.470;2022-09-09T12:42:54;2.72;;;0.95;;
15661;SDS011;7931;52.274;10.470;2022-09-09T12:45:26;2.90;;;0.73;;
15661;SDS011;7931;52.274;10.470;2022-09-09T12:47:59;2.33;;;0.70;;
15661;SDS011;7931;52.274;10.470;2022-09-09T12:50:32;2.40;;;0.63;;
15661;SDS011;7931;52.274;10.470;2022-09-09T12:53:45;2.63;;;1.15;;
15661;SDS011;7931;52.274;10.470;2022-09-09T12:55:58;2.90;;;1.38;;
15661;SDS011;7931;52.274;10.470;2022-09-09T12:58:25;2.63;;;0.65;;
15661;SDS011;7931;52.274;10.470;2022-09-09T13:00:55;3.20;;;1.10;;
15661;SDS011;7931;52.274;10.470;2022-09-09T13:03:25;3.92;;;1.70;;
15661;SDS011;7931;52.274;10.470;2022-09-09T13:05:51;2.72;;;0.75;;
15661;SDS011;7931;52.274;10.470;2022-09-09T13:08:18;0.98;;;0.40;;
15661;SDS011;7931;52.274;10.470;2022-09-09T13:11:21;1.30;;;0.50;;
15661;SDS011;7931;52.274;10.470;2022-09-09T13:13:42;3.15;;;0.80;;
15661;SDS011;7931;52.274;10.470;2022-09-09T13:16:19;1.58;;;0.50;;
15661;SDS011;7931;52.274;10.470;2022-09-09T13:18:50;2.72;;;0.70;;
15661;SDS011;7931;52.274;10.470;2022-09-09T13:21:15;0.95;;;0.50;;
15661;SDS011;7931;52.274;10.470;2022-09-09T13:23:42;1.10;;;0.63;;
15661;SDS011;7931;52.274;10.470;2022-09-09T13:28:48;3.00;;;0.80;;
15661;SDS011;7931;52.274;10.470;2022-09-09T13:31:27;1.58;;;0.55;;
15661;SDS011;7931;52.274;10.470;2022-09-09T13:33:54;1.30;;;0.70;;
15661;SDS011;7931;52.274;10.470;2022-09-09T13:36:27;0.90;;;0.60;;
15661;SDS011;7931;52.274;10.470;2022-09-09T13:38:59;1.63;;;0.50;;
15661;SDS011;7931;52.274;10.470;2022-09-09T13:41:41;1.10;;;0.60;;
15661;SDS011;7931;52.274;10.470;2022-09-09T13:44:23;1.75;;;0.60;;
15661;SDS011;7931;52.274;10.470;2022-09-09T13:47:03;2.10;;;0.32;;
15661;SDS011;7931;52.274;10.470;2022-09-09T13:49:30;2.63;;;0.98;;
15661;SDS011;7931;52.274;10.470;2022-09-09T13:52:12;1.50;;;0.50;;
15661;SDS011;7931;52.274;10.470;2022-09-09T13:54:39;1.65;;;0.60;;
15661;SDS011;7931;52.274;10.470;2022-09-09T13:57:05;2.05;;;0.52;;
15661;SDS011;7931;52.274;10.470;2022-09-09T13:59:40;2.70;;;0.60;;
15661;SDS011;7931;52.274;10.470;2022-09-09T14:02:06;2.00;;;0.70;;
15661;SDS011;7931;52.274;10.470;2022-09-09T14:04:32;2.45;;;0.82;;
15661;SDS011;7931;52.274;10.470;2022-09-09T14:07:00;1.10;;;0.73;;
15661;SDS011;7931;52.274;10.470;2022-09-09T14:09:26;2.38;;;0.85;;
15661;SDS011;7931;52.274;10.470;2022-09-09T14:11:51;2.15;;;0.52;;
15661;SDS011;7931;52.274;10.470;2022-09-09T14:14:16;2.30;;;0.80;;
15661;SDS011;7931;52.274;10.470;2022-09-09T14:16:42;3.60;;;0.93;;
15661;SDS011;7931;52.274;10.470;2022-09-09T14:19:08;2.60;;;0.73;;
15661;SDS011;7931;52.274;10.470;2022-09-09T14:21:34;1.77;;;0.63;;
15661;SDS011;7931;52.274;10.470;2022-09-09T14:23:59;1.60;;;0.73;;
15661;SDS011;7931;52.274;10.470;2022-09-09T14:26:26;3.28;;;0.90;;
15661;SDS011;7931;52.274;10.470;2022-09-09T14:28:53;2.35;;;0.77;;
15661;SDS011;7931;52.274;10.470;2022-09-09T14:31:19;2.20;;;1.30;;
15661;SDS011;7931;52.274;10.470;2022-09-09T14:33:44;2.00;;;0.60;;
15661;SDS011;7931;52.274;10.470;2022-09-09T14:36:10;5.18;;;1.48;;
15661;SDS011;7931;52.274;10.470;2022-09-09T14:38:36;2.60;;;1.13;;
15661;SDS011;7931;52.274;10.470;2022-09-09T14:41:09;1.63;;;0.70;;
15661;SDS011;7931;52.274;10.470;2022-09-09T14:43:37;3.63;;;0.82;;
15661;SDS011;7931;52.274;10.470;2022-09-09T14:46:06;2.08;;;0.65;;
15661;SDS011;7931;52.274;10.470;2022-09-09T14:48:42;2.28;;;0.90;;
15661;SDS011;7931;52.274;10.470;2022-09-09T14:51:10;2.13;;;0.80;;
15661;SDS011;7931;52.274;10.470;2022-09-09T14:53:38;1.67;;;0.68;;
15661;SDS011;7931;52.274;10.470;2022-09-09T14:56:05;3.50;;;0.90;;
15661;SDS011;7931;52.274;10.470;2022-09-09T14:58:36;3.38;;;1.00;;
15661;SDS011;7931;52.274;10.470;2022-09-09T15:01:07;1.95;;;0.75;;
15661;SDS011;7931;52.274;10.470;2022-09-09T15:03:40;2.00;;;1.27;;
15661;SDS011;7931;52.274;10.470;2022-09-09T15:06:07;2.40;;;0.85;;
15661;SDS011;7931;52.274;10.470;2022-09-09T15:08:37;3.67;;;0.80;;
15661;SDS011;7931;52.274;10.470;2022-09-09T15:11:05;3.50;;;0.80;;
15661;SDS011;7931;52.274;10.470;2022-09-09T15:13:32;2.63;;;0.80;;
15661;SDS011;7931;52.274;10.470;2022-09-09T15:16:09;3.80;;;0.98;;
15661;SDS011;7931;52.274;10.470;2022-09-09T15:18:37;2.42;;;0.88;;
15661;SDS011;7931;52.274;10.470;2022-09-09T15:21:18;2.97;;;0.68;;
15661;SDS011;7931;52.274;10.470;2022-09-09T15:23:46;3.60;;;0.88;;
15661;SDS011;7931;52.274;10.470;2022-09-09T15:26:16;5.57;;;0.90;;
15661;SDS011;7931;52.274;10.470;2022-09-09T15:28:42;3.75;;;0.90;;
15661;SDS011;7931;52.274;10.470;2022-09-09T15:31:30;3.42;;;0.77;;
15661;SDS011;7931;52.274;10.470;2022-09-09T15:33:56;3.85;;;0.73;;
15661;SDS011;7931;52.274;10.470;2022-09-09T15:36:30;3.80;;;1.10;;
15661;SDS011;7931;52.274;10.470;2022-09-09T15:38:57;1.80;;;1.02;;
15661;SDS011;7931;52.274;10.470;2022-09-09T15:41:24;4.28;;;0.77;;
15661;SDS011;7931;52.274;10.470;2022-09-09T15:43:50;2.25;;;0.75;;
15661;SDS011;7931;52.274;10.470;2022-09-09T15:48:43;3.50;;;1.30;;
15661;SDS011;7931;52.274;10.470;2022-09-09T15:51:10;1.52;;;0.57;;
15661;SDS011;7931;52.274;10.470;2022-09-09T15:53:39;1.98;;;0.75;;
15661;SDS011;7931;52.274;10.470;2022-09-09T15:56:05;2.97;;;0.88;;
15661;SDS011;7931;52.274;10.470;2022-09-09T15:58:34;2.78;;;0.65;;
15661;SDS011;7931;52.274;10.470;2022-09-09T16:01:10;1.23;;;0.65;;
15661;SDS011;7931;52.274;10.470;2022-09-09T16:03:42;1.63;;;0.70;;
15661;SDS011;7931;52.274;10.470;2022-09-09T16:06:08;3.45;;;0.90;;
15661;SDS011;7931;52.274;10.470;2022-09-09T16:08:40;1.85;;;0.60;;
15661;SDS011;7931;52.274;10.470;2022-09-09T16:11:07;1.92;;;0.70;;
15661;SDS011;7931;52.274;10.470;2022-09-09T16:13:38;2.10;;;1.00;;
15661;SDS011;7931;52.274;10.470;2022-09-09T16:16:04;3.08;;;0.82;;
15661;SDS011;7931;52.274;10.470;2022-09-09T16:18:50;1.33;;;0.50;;
15661;SDS011;7931;52.274;10.470;2022-09-09T16:21:21;3.55;;;1.05;;
15661;SDS011;7931;52.274;10.470;2022-09-09T16:23:52;2.13;;;0.60;;
15661;SDS011;7931;52.274;10.470;2022-09-09T16:26:21;2.13;;;0.80;;
15661;SDS011;7931;52.274;10.470;2022-09-09T16:28:47;2.25;;;0.63;;
15661;SDS011;7931;52.274;10.470;2022-09-09T16:31:15;2.10;;;0.57;;
15661;SDS011;7931;52.274;10.470;2022-09-09T16:33:42;1.77;;;0.73;;
15661;SDS011;7931;52.274;10.470;2022-09-09T16:36:12;2.25;;;0.80;;
15661;SDS011;7931;52.274;10.470;2022-09-09T16:38:40;2.05;;;0.70;;
15661;SDS011;7931;52.274;10.470;2022-09-09T16:41:05;2.30;;;0.73;;
15661;SDS011;7931;52.274;10.470;2022-09-09T16:43:32;1.20;;;0.63;;
15661;SDS011;7931;52.274;10.470;2022-09-09T16:45:59;2.17;;;0.45;;
15661;SDS011;7931;52.274;10.470;2022-09-09T16:48:31;2.28;;;1.02;;
15661;SDS011;7931;52.274;10.470;2022-09-09T16:51:01;2.83;;;1.65;;
15661;SDS011;7931;52.274;10.470;2022-09-09T16:53:30;3.13;;;1.08;;
15661;SDS011;7931;52.274;10.470;2022-09-09T16:55:56;3.10;;;0.80;;
15661;SDS011;7931;52.274;10.470;2022-09-09T16:58:21;2.22;;;1.20;;
15661;SDS011;7931;52.274;10.470;2022-09-09T17:00:47;2.92;;;1.00;;
15661;SDS011;7931;52.274;10.470;2022-09-09T17:03:14;2.85;;;0.90;;
15661;SDS011;7931;52.274;10.470;2022-09-09T17:05:40;2.97;;;0.95;;
15661;SDS011;7931;52.274;10.470;2022-09-09T17:08:06;2.53;;;0.88;;
15661;SDS011;7931;52.274;10.470;2022-09-09T17:10:32;2.53;;;1.00;;
15661;SDS011;7931;52.274;10.470;2022-09-09T17:12:57;5.28;;;1.17;;
15661;SDS011;7931;52.274;10.470;2022-09-09T17:15:23;5.70;;;1.10;;
15661;SDS011;7931;52.274;10.470;2022-09-09T17:17:48;2.83;;;0.90;;
15661;SDS011;7931;52.274;10.470;2022-09-09T17:20:17;4.55;;;1.08;;
15661;SDS011;7931;52.274;10.470;2022-09-09T17:22:43;2.53;;;1.02;;
15661;SDS011;7931;52.274;10.470;2022-09-09T17:25:08;2.22;;;0.80;;
15661;SDS011;7931;52.274;10.470;2022-09-09T17:27:34;4.20;;;1.10;;
15661;SDS011;7931;52.274;10.470;2022-09-09T17:29:59;3.08;;;0.98;;